Time;durP1;ratioP1;P1;durP2;ratioP2;P2;SDS_P1;SDS_P2;PMS_P1;PMS_P2;Temp;Humidity;BMP_temperature;BMP_pressure;BME280_temperature;BME280_humidity;BME280_pressure;Samples;Min_cycle;Max_cycle;Signal;HPM_P1;HPM_P2
2022/05/05 00:01:05;;;;;;;11.88;8.02;;;9.00;77.00;;;;;;5099887;27;20043;-79
2022/05/05 00:03:31;;;;;;;12.45;8.00;;;9.00;77.00;;;;;;5100431;27;20039;-77
2022/05/05 00:05:57;;;;;;;13.73;8.95;;;9.00;76.90;;;;;;5099802;27;20513;-79
2022/05/05 00:08:22;;;;;;;18.73;9.05;;;9.00;76.90;;;;;;5099763;27;20111;-78
2022/05/05 00:16:16;;;;;;;14.95;8.60;;;9.00;76.80;;;;;;5102224;27;20035;-80
2022/05/05 00:18:42;;;;;;;11.68;8.48;;;8.90;76.90;;;;;;5116441;27;20039;-79
2022/05/05 00:21:07;;;;;;;14.35;8.38;;;8.90;77.00;;;;;;5116463;27;20046;-79
2022/05/05 00:23:33;;;;;;;15.43;8.05;;;8.90;76.80;;;;;;5099507;27;20126;-79
2022/05/05 00:25:59;;;;;;;11.57;7.82;;;8.90;76.90;;;;;;5099513;27;20104;-78
2022/05/05 00:28:24;;;;;;;10.90;7.70;;;8.80;77.30;;;;;;5099571;27;20039;-78
2022/05/05 00:30:50;;;;;;;13.52;9.52;;;8.90;77.20;;;;;;5099287;27;20043;-79
2022/05/05 00:33:15;;;;;;;13.48;10.23;;;8.90;77.10;;;;;;5116143;27;20035;-78
2022/05/05 00:35:41;;;;;;;15.65;9.52;;;8.90;76.80;;;;;;5099095;27;20058;-82
2022/05/05 00:38:07;;;;;;;17.55;9.68;;;8.80;76.80;;;;;;5099297;27;20031;-79
2022/05/05 00:40:32;;;;;;;13.57;8.77;;;8.70;77.10;;;;;;5065655;27;20075;-80
2022/05/05 00:42:59;;;;;;;10.73;7.32;;;8.70;76.70;;;;;;5099207;27;20042;-79
2022/05/05 00:45:25;;;;;;;17.10;9.30;;;8.70;76.60;;;;;;5099235;27;20070;-82
2022/05/05 00:47:51;;;;;;;15.52;8.93;;;8.60;76.60;;;;;;5116267;27;20479;-77
2022/05/05 00:50:18;;;;;;;12.82;7.88;;;8.60;76.50;;;;;;5098984;27;20034;-77
2022/05/05 00:52:44;;;;;;;17.60;10.50;;;8.50;76.60;;;;;;5115904;27;20043;-79
2022/05/05 00:55:10;;;;;;;18.63;10.30;;;8.50;76.90;;;;;;5099306;27;20080;-79
2022/05/05 00:57:37;;;;;;;13.73;9.45;;;8.40;76.90;;;;;;5098978;27;20498;-81
2022/05/05 01:00:03;;;;;;;16.60;9.40;;;8.40;76.90;;;;;;5115838;27;20392;-81
2022/05/05 01:02:32;;;;;;;15.45;9.88;;;8.40;76.90;;;;;;5115349;28;20487;-79
2022/05/05 01:04:58;;;;;;;12.38;8.95;;;8.40;76.80;;;;;;5099072;27;20096;-82
2022/05/05 01:07:25;;;;;;;13.98;9.60;;;8.30;77.10;;;;;;5115844;27;20043;-77
2022/05/05 01:09:51;;;;;;;12.05;8.88;;;8.30;77.20;;;;;;5115707;27;20121;-79
2022/05/05 01:12:17;;;;;;;10.57;7.35;;;8.30;77.00;;;;;;5099080;27;20146;-78
2022/05/05 01:14:44;;;;;;;15.07;9.55;;;8.40;77.00;;;;;;5116682;27;20050;-77
2022/05/05 01:17:10;;;;;;;9.93;7.55;;;8.40;76.90;;;;;;5098999;28;20035;-77
2022/05/05 01:19:36;;;;;;;18.23;9.18;;;8.40;76.60;;;;;;5099142;27;20039;-81
2022/05/05 01:22:03;;;;;;;14.73;9.48;;;8.40;76.70;;;;;;5115758;27;20100;-79
2022/05/05 01:29:57;;;;;;;12.50;8.63;;;8.30;76.80;;;;;;5101095;28;20083;-81
2022/05/05 01:32:30;;;;;;;13.75;9.73;;;8.30;76.90;;;;;;5115545;28;20078;-79
2022/05/05 01:34:56;;;;;;;15.23;9.65;;;8.20;76.90;;;;;;5115425;28;20122;-77
2022/05/05 01:37:21;;;;;;;16.95;10.15;;;8.10;76.90;;;;;;5098424;28;20153;-80
2022/05/05 01:39:48;;;;;;;15.05;9.02;;;8.10;77.20;;;;;;5081588;28;20039;-79
2022/05/05 01:42:13;;;;;;;16.10;9.82;;;8.10;77.40;;;;;;5115342;28;20075;-79
2022/05/05 01:44:39;;;;;;;13.52;9.40;;;8.00;77.30;;;;;;5081648;28;20075;-79
2022/05/05 01:47:05;;;;;;;16.58;9.60;;;8.00;77.50;;;;;;5081544;28;20039;-81
2022/05/05 01:49:30;;;;;;;11.80;8.02;;;8.00;77.70;;;;;;5115216;27;20050;-79
2022/05/05 01:51:56;;;;;;;15.95;8.68;;;8.00;77.60;;;;;;5115265;28;20039;-79
2022/05/05 01:54:22;;;;;;;17.63;9.73;;;8.00;77.60;;;;;;5098200;28;20035;-82
2022/05/05 01:56:47;;;;;;;17.83;9.63;;;8.10;77.50;;;;;;5098568;28;20035;-80
2022/05/05 01:59:13;;;;;;;16.15;9.45;;;8.00;77.60;;;;;;5115582;28;20047;-78
2022/05/05 02:01:39;;;;;;;15.40;9.70;;;8.00;77.60;;;;;;5098577;28;20119;-80
2022/05/05 02:04:04;;;;;;;22.15;12.82;;;8.00;77.50;;;;;;5098315;28;20042;-80
2022/05/05 02:06:30;;;;;;;15.27;9.48;;;8.00;77.40;;;;;;5098296;28;20375;-81
2022/05/05 02:08:57;;;;;;;15.50;10.05;;;8.00;77.30;;;;;;5115045;28;20074;-79
2022/05/05 02:11:23;;;;;;;12.70;9.27;;;7.80;77.40;;;;;;5081364;28;20039;-81
2022/05/05 02:13:49;;;;;;;16.00;10.80;;;7.80;77.60;;;;;;5098639;27;20046;-82
2022/05/05 02:16:14;;;;;;;14.07;10.38;;;7.80;78.10;;;;;;5119272;27;20394;-81
2022/05/05 02:18:40;;;;;;;14.15;10.30;;;7.70;78.10;;;;;;5101872;27;20062;-76
2022/05/05 02:21:06;;;;;;;15.55;10.57;;;7.60;78.20;;;;;;5118767;27;20387;-79
2022/05/05 02:23:31;;;;;;;15.02;10.13;;;7.60;78.30;;;;;;5085087;27;20129;-81
2022/05/05 02:25:57;;;;;;;19.13;11.70;;;7.60;78.30;;;;;;5102033;27;20072;-83
2022/05/05 02:28:23;;;;;;;17.33;11.30;;;7.60;78.60;;;;;;5101740;27;20076;-80
2022/05/05 02:30:48;;;;;;;16.80;10.20;;;7.50;78.70;;;;;;5084758;27;20097;-80
2022/05/05 02:33:14;;;;;;;15.60;10.80;;;7.50;78.90;;;;;;5118567;27;20043;-77
2022/05/05 02:35:40;;;;;;;14.55;10.52;;;7.40;78.90;;;;;;5101430;27;20138;-80
2022/05/05 02:40:50;;;;;;;14.15;10.95;;;7.40;79.30;;;;;;5104184;27;20082;-79
2022/05/05 02:43:15;;;;;;;14.73;11.50;;;7.30;79.20;;;;;;5101452;27;20074;-78
2022/05/05 02:45:41;;;;;;;16.40;11.40;;;7.30;79.40;;;;;;5101459;27;20052;-81
2022/05/05 02:48:07;;;;;;;19.58;11.23;;;7.30;79.70;;;;;;5118297;27;20039;-78
2022/05/05 02:50:33;;;;;;;15.68;10.63;;;7.30;79.90;;;;;;5101343;27;20118;-81
2022/05/05 02:52:59;;;;;;;16.60;10.60;;;7.20;80.10;;;;;;5118120;27;20590;-78
2022/05/05 02:55:24;;;;;;;18.10;10.93;;;7.30;80.20;;;;;;5118244;27;20043;-83
2022/05/05 02:57:51;;;;;;;16.38;11.32;;;7.20;80.10;;;;;;5101210;27;20127;-82
2022/05/05 03:00:17;;;;;;;20.15;11.23;;;7.20;79.90;;;;;;5118300;27;20428;-80
2022/05/05 03:02:44;;;;;;;18.35;10.75;;;7.30;79.80;;;;;;5100683;27;20051;-77
2022/05/05 03:05:11;;;;;;;19.35;10.88;;;7.20;80.10;;;;;;5101180;27;20043;-79
2022/05/05 03:07:37;;;;;;;19.27;11.57;;;7.20;79.80;;;;;;5101230;27;20039;-77
2022/05/05 03:10:04;;;;;;;14.95;10.27;;;7.10;80.00;;;;;;5101252;27;20050;-84
2022/05/05 03:12:30;;;;;;;20.35;11.23;;;7.10;80.20;;;;;;5117801;27;20544;-79
2022/05/05 03:14:55;;;;;;;16.65;11.10;;;7.10;80.50;;;;;;5101078;27;20034;-77
2022/05/05 03:17:21;;;;;;;20.00;11.27;;;7.10;80.80;;;;;;5100845;27;20027;-78
2022/05/05 03:19:47;;;;;;;17.25;11.07;;;7.10;81.00;;;;;;5117932;27;20039;-78
2022/05/05 03:22:12;;;;;;;19.20;10.32;;;7.10;80.90;;;;;;5117596;27;20483;-78
2022/05/05 03:24:38;;;;;;;16.27;10.00;;;7.10;80.90;;;;;;5083844;27;20039;-80
2022/05/05 03:27:04;;;;;;;16.65;10.02;;;7.10;80.70;;;;;;5099998;27;20035;-79
2022/05/05 03:29:31;;;;;;;15.05;10.38;;;7.10;80.70;;;;;;5117513;27;20100;-80
2022/05/05 03:31:56;;;;;;;14.20;9.00;;;7.10;81.00;;;;;;5117452;27;20039;-80
2022/05/05 03:34:22;;;;;;;13.90;9.30;;;7.10;80.90;;;;;;5100747;27;20039;-80
2022/05/05 03:36:48;;;;;;;15.35;9.20;;;7.10;80.40;;;;;;5083368;27;20505;-78
2022/05/05 03:39:13;;;;;;;18.10;9.18;;;7.20;80.40;;;;;;5100325;27;20050;-81
2022/05/05 03:41:39;;;;;;;17.23;9.38;;;7.20;80.50;;;;;;5083469;27;20079;-80
2022/05/05 03:44:07;;;;;;;13.18;9.23;;;7.20;80.80;;;;;;5117269;27;20070;-83
2022/05/05 03:46:33;;;;;;;15.75;10.18;;;7.20;80.60;;;;;;5100275;27;20467;-78
2022/05/05 03:48:59;;;;;;;15.30;10.35;;;7.10;80.10;;;;;;5100104;27;20076;-82
2022/05/05 03:51:24;;;;;;;19.02;11.75;;;7.00;80.20;;;;;;5116982;27;20039;-81
2022/05/05 03:53:51;;;;;;;15.52;10.40;;;7.10;80.90;;;;;;5099941;27;20050;-80
2022/05/05 03:56:16;;;;;;;14.77;10.55;;;7.00;81.50;;;;;;5100004;27;20390;-79
2022/05/05 03:58:42;;;;;;;15.27;10.38;;;7.00;81.40;;;;;;5116819;27;20035;-77
2022/05/05 04:01:08;;;;;;;13.95;11.10;;;7.00;81.20;;;;;;5116976;27;20039;-79
2022/05/05 04:03:34;;;;;;;16.38;10.70;;;7.00;81.40;;;;;;5100102;27;20095;-80
2022/05/05 04:06:05;;;;;;;15.55;12.45;;;7.00;81.50;;;;;;5083420;27;20433;-78
2022/05/05 04:08:31;;;;;;;17.70;10.43;;;7.00;81.50;;;;;;5099866;27;20047;-78
2022/05/05 04:10:57;;;;;;;19.75;10.82;;;7.00;81.50;;;;;;5082943;27;20129;-79
2022/05/05 04:13:25;;;;;;;14.15;10.38;;;7.00;81.40;;;;;;5099703;27;20039;-81
2022/05/05 04:15:51;;;;;;;17.88;10.77;;;7.00;81.60;;;;;;5116687;27;20161;-81
2022/05/05 04:18:17;;;;;;;18.50;11.23;;;7.00;81.80;;;;;;5099721;27;20050;-80
2022/05/05 04:20:43;;;;;;;13.57;10.85;;;7.00;81.90;;;;;;5099532;27;20046;-81
2022/05/05 04:23:10;;;;;;;12.73;10.27;;;7.00;81.60;;;;;;5082729;27;20466;-80
2022/05/05 04:25:40;;;;;;;10.65;7.90;;;7.00;81.50;;;;;;5083010;27;20364;-80
2022/05/05 04:28:10;;;;;;;21.05;11.15;;;7.00;81.40;;;;;;5116401;27;20076;-79
2022/05/05 04:30:37;;;;;;;18.00;10.38;;;7.00;80.90;;;;;;5116362;27;20118;-81
2022/05/05 04:33:03;;;;;;;12.82;9.23;;;7.00;81.30;;;;;;5116233;27;20181;-78
2022/05/05 04:35:30;;;;;;;10.52;7.95;;;6.90;81.40;;;;;;5099137;27;20039;-82
2022/05/05 04:37:56;;;;;;;19.27;11.95;;;7.00;81.00;;;;;;5098494;27;20118;-80
2022/05/05 04:40:22;;;;;;;16.67;10.63;;;6.90;81.70;;;;;;5099165;27;20126;-80
2022/05/05 04:42:48;;;;;;;15.45;9.05;;;6.90;81.70;;;;;;5099102;27;20047;-81
2022/05/05 04:45:13;;;;;;;15.40;10.73;;;6.90;81.80;;;;;;5099162;27;20233;-77
2022/05/05 04:47:39;;;;;;;14.98;11.57;;;6.90;82.00;;;;;;5115980;27;20083;-80
2022/05/05 04:50:06;;;;;;;16.23;10.07;;;6.80;82.20;;;;;;5098955;27;20035;-80
2022/05/05 04:52:33;;;;;;;16.85;11.13;;;6.80;81.90;;;;;;5115857;27;20556;-80
2022/05/05 04:54:59;;;;;;;19.10;11.27;;;6.90;82.20;;;;;;5115870;27;20074;-79
2022/05/05 04:57:25;;;;;;;19.02;11.25;;;6.90;82.10;;;;;;5098902;27;20039;-83
2022/05/05 04:59:51;;;;;;;17.70;11.63;;;6.90;82.00;;;;;;5098910;27;20114;-81
2022/05/05 05:02:19;;;;;;;14.45;9.90;;;7.00;82.00;;;;;;5098790;27;20089;-79
2022/05/05 05:04:45;;;;;;;18.27;12.80;;;7.00;82.40;;;;;;5115702;28;20035;-79
2022/05/05 05:07:11;;;;;;;20.58;11.25;;;7.00;82.10;;;;;;5098792;27;20069;-80
2022/05/05 05:09:37;;;;;;;14.43;9.57;;;7.10;81.90;;;;;;5082042;27;20035;-79
2022/05/05 05:12:03;;;;;;;18.70;11.65;;;7.20;81.70;;;;;;5098588;27;20403;-82
2022/05/05 05:14:29;;;;;;;15.50;9.93;;;7.20;81.50;;;;;;5098732;27;20122;-78
2022/05/05 05:16:54;;;;;;;16.55;10.90;;;7.30;81.90;;;;;;5116049;27;20129;-80
2022/05/05 05:19:20;;;;;;;17.73;11.98;;;7.30;81.60;;;;;;5116068;27;20039;-81
2022/05/05 05:21:46;;;;;;;21.40;11.57;;;7.40;82.20;;;;;;5115509;27;20046;-79
2022/05/05 05:24:13;;;;;;;15.85;11.15;;;7.40;82.00;;;;;;5081804;28;20035;-80
2022/05/05 05:26:39;;;;;;;14.75;11.35;;;7.50;81.70;;;;;;5115805;28;20456;-81
2022/05/05 05:29:05;;;;;;;14.00;10.68;;;7.50;81.60;;;;;;5115496;28;20074;-81
2022/05/05 05:31:31;;;;;;;20.95;11.52;;;7.60;82.50;;;;;;5098691;28;20086;-80
2022/05/05 05:33:57;;;;;;;14.57;9.75;;;7.60;83.40;;;;;;5115547;28;20050;-84
2022/05/05 05:36:23;;;;;;;16.75;11.35;;;7.60;82.20;;;;;;5115239;28;20047;-78
2022/05/05 05:38:48;;;;;;;21.65;12.27;;;7.70;83.30;;;;;;5098464;28;20399;-79
2022/05/05 05:41:14;;;;;;;19.50;12.43;;;7.80;83.90;;;;;;5115267;28;20054;-76
2022/05/05 05:43:40;;;;;;;15.30;11.27;;;7.90;83.10;;;;;;5098603;28;20035;-81
2022/05/05 05:46:05;;;;;;;18.27;11.55;;;7.90;82.00;;;;;;5098333;28;20039;-82
2022/05/05 05:48:31;;;;;;;19.70;11.88;;;8.00;82.20;;;;;;5081548;27;20116;-80
2022/05/05 05:50:57;;;;;;;19.92;11.82;;;8.10;81.90;;;;;;5085577;27;20122;-77
2022/05/05 05:53:22;;;;;;;20.40;11.52;;;8.10;83.10;;;;;;5119437;27;20419;-80
2022/05/05 05:55:48;;;;;;;16.33;11.63;;;8.10;82.70;;;;;;5119432;27;20460;-80
2022/05/05 05:58:14;;;;;;;20.13;10.52;;;8.20;81.90;;;;;;5119479;27;20039;-77
2022/05/05 06:00:40;;;;;;;15.85;11.10;;;8.30;81.90;;;;;;5085519;27;20042;-79
2022/05/05 06:05:53;;;;;;;14.57;11.13;;;8.30;82.60;;;;;;5119829;27;20043;-82
2022/05/05 06:08:19;;;;;;;18.35;11.15;;;8.40;83.10;;;;;;5102754;27;20064;-78
2022/05/05 06:10:45;;;;;;;19.23;11.68;;;8.50;82.80;;;;;;5085983;27;20391;-79
2022/05/05 06:13:11;;;;;;;24.80;12.18;;;8.50;81.90;;;;;;5119263;27;20380;-79
2022/05/05 06:15:37;;;;;;;19.05;12.07;;;8.60;82.80;;;;;;5119294;27;20087;-83
2022/05/05 06:18:02;;;;;;;21.15;13.27;;;8.70;82.70;;;;;;5102199;27;20425;-80
2022/05/05 06:20:28;;;;;;;19.60;11.40;;;8.80;82.50;;;;;;5119190;27;20035;-81
2022/05/05 06:22:54;;;;;;;21.42;11.93;;;8.80;82.70;;;;;;5102027;27;20406;-79
2022/05/05 06:25:23;;;;;;;18.83;11.35;;;8.90;82.50;;;;;;5102081;27;20043;-80
2022/05/05 06:27:49;;;;;;;16.45;11.90;;;8.90;82.20;;;;;;5102377;27;20046;-80
2022/05/05 06:30:15;;;;;;;17.13;11.38;;;9.00;82.10;;;;;;5118807;27;20035;-81
2022/05/05 06:32:41;;;;;;;19.38;12.00;;;9.00;82.00;;;;;;5118733;27;20043;-80
2022/05/05 06:35:07;;;;;;;15.18;11.25;;;9.00;82.20;;;;;;5101686;27;20046;-83
2022/05/05 06:37:33;;;;;;;16.65;10.65;;;9.10;82.20;;;;;;5118425;27;20126;-80
2022/05/05 06:40:00;;;;;;;18.75;12.15;;;9.10;82.10;;;;;;5101494;27;20070;-81
2022/05/05 06:42:27;;;;;;;18.50;12.18;;;9.20;81.70;;;;;;5118794;27;20462;-79
2022/05/05 06:44:52;;;;;;;16.77;11.15;;;9.30;82.40;;;;;;5084856;27;20073;-81
2022/05/05 06:47:18;;;;;;;15.57;11.15;;;9.40;82.20;;;;;;5084833;27;20106;-80
2022/05/05 06:49:44;;;;;;;14.02;9.95;;;9.50;81.30;;;;;;5118346;27;20039;-78
2022/05/05 06:52:10;;;;;;;17.10;11.80;;;9.50;81.30;;;;;;5118577;27;20096;-78
2022/05/05 06:54:36;;;;;;;14.23;11.10;;;9.60;81.80;;;;;;5101209;27;20502;-81
2022/05/05 06:57:02;;;;;;;14.13;11.07;;;9.60;81.20;;;;;;5101141;27;20376;-81
2022/05/05 06:59:27;;;;;;;14.13;11.20;;;9.70;81.10;;;;;;5118404;27;20074;-81
2022/05/05 07:01:53;;;;;;;16.90;10.82;;;9.80;81.70;;;;;;5083283;27;20048;-81
2022/05/05 07:07:11;;;;;;;16.58;10.05;;;10.00;80.90;;;;;;5117910;27;20050;-80
2022/05/05 07:12:21;;;;;;;18.65;11.25;;;10.20;79.70;;;;;;5103509;27;20092;-82
2022/05/05 07:14:47;;;;;;;17.08;11.20;;;10.30;78.90;;;;;;5101340;27;20043;-78
2022/05/05 07:17:13;;;;;;;17.88;10.93;;;10.40;78.60;;;;;;5084226;27;20367;-79
2022/05/05 07:19:40;;;;;;;17.50;10.75;;;10.50;76.80;;;;;;5084081;27;20372;-79
2022/05/05 07:22:06;;;;;;;15.07;10.23;;;10.60;77.90;;;;;;5117766;27;20123;-80
2022/05/05 07:24:32;;;;;;;21.35;11.30;;;10.70;78.00;;;;;;5117962;27;20039;-79
2022/05/05 07:27:02;;;;;;;13.98;9.73;;;10.80;77.10;;;;;;5117881;27;20372;-79
2022/05/05 07:29:29;;;;;;;20.20;10.73;;;11.00;77.40;;;;;;5117550;27;20079;-84
2022/05/05 07:31:56;;;;;;;16.27;10.60;;;11.00;77.00;;;;;;5117695;27;20035;-81
2022/05/05 07:34:22;;;;;;;18.45;11.10;;;11.00;76.10;;;;;;5117504;27;20046;-80
2022/05/05 07:36:48;;;;;;;17.20;11.05;;;11.10;76.20;;;;;;5117391;27;20112;-82
2022/05/05 07:39:14;;;;;;;13.18;9.95;;;11.20;76.10;;;;;;5117572;27;20047;-79
2022/05/05 07:41:40;;;;;;;18.45;11.77;;;11.20;76.10;;;;;;5117394;27;20035;-78
2022/05/05 07:44:06;;;;;;;15.10;10.75;;;11.30;75.50;;;;;;5117334;27;20111;-80
2022/05/05 07:46:36;;;;;;;16.88;10.93;;;11.30;75.20;;;;;;5117596;27;20463;-80
2022/05/05 07:49:06;;;;;;;17.40;10.38;;;11.40;75.20;;;;;;5100379;27;20511;-83
2022/05/05 07:51:33;;;;;;;19.50;11.73;;;11.50;74.60;;;;;;5100308;27;20035;-80
2022/05/05 07:56:44;;;;;;;15.70;9.82;;;11.60;74.60;;;;;;5117293;27;20488;-81
2022/05/05 07:59:10;;;;;;;18.67;10.95;;;11.80;73.60;;;;;;5100344;27;20388;-79
2022/05/05 08:01:36;;;;;;;13.80;10.02;;;11.80;73.60;;;;;;5116812;27;20031;-81
2022/05/05 08:04:02;;;;;;;12.07;8.70;;;12.00;73.90;;;;;;5116931;27;20035;-81
2022/05/05 08:06:28;;;;;;;12.15;8.80;;;12.10;72.90;;;;;;5117034;27;20095;-80
2022/05/05 08:08:53;;;;;;;14.80;9.45;;;12.20;73.00;;;;;;5083238;27;20043;-77
2022/05/05 08:11:19;;;;;;;18.85;9.75;;;12.30;71.50;;;;;;5099733;27;20098;-82
2022/05/05 08:13:45;;;;;;;14.82;10.10;;;12.40;72.30;;;;;;5116435;27;20043;-81
2022/05/05 08:16:11;;;;;;;18.45;9.65;;;12.50;71.90;;;;;;5083065;27;20038;-78
2022/05/05 08:18:40;;;;;;;15.95;9.45;;;12.60;70.50;;;;;;5099860;27;20047;-78
2022/05/05 08:21:06;;;;;;;14.23;8.02;;;12.60;69.40;;;;;;5099445;27;20483;-80
2022/05/05 08:23:33;;;;;;;14.05;7.32;;;12.70;69.10;;;;;;5116543;27;20088;-78
2022/05/05 08:28:43;;;;;;;13.98;8.55;;;12.90;69.10;;;;;;5116369;27;20043;-82
2022/05/05 08:31:10;;;;;;;16.85;8.95;;;12.90;67.30;;;;;;5116308;27;20042;-83
2022/05/05 08:33:38;;;;;;;13.75;7.90;;;12.90;67.40;;;;;;5116181;27;20043;-84
2022/05/05 08:36:05;;;;;;;12.88;7.32;;;13.00;68.50;;;;;;5116249;27;20059;-78
2022/05/05 08:38:32;;;;;;;17.50;7.63;;;13.20;68.60;;;;;;5099474;27;20039;-81
2022/05/05 08:40:58;;;;;;;7.93;5.13;;;13.10;64.60;;;;;;5116125;27;20050;-79
2022/05/05 08:43:24;;;;;;;15.63;6.50;;;13.30;65.80;;;;;;5116103;27;20548;-83
2022/05/05 08:45:53;;;;;;;6.78;5.20;;;13.30;65.20;;;;;;5082526;27;20125;-79
2022/05/05 08:48:19;;;;;;;8.60;4.82;;;13.50;65.00;;;;;;5099056;27;20529;-80
2022/05/05 08:50:50;;;;;;;9.82;5.22;;;13.70;64.10;;;;;;5115956;27;20035;-79
2022/05/05 08:53:16;;;;;;;7.03;5.43;;;13.90;63.40;;;;;;5116048;27;20043;-79
2022/05/05 08:55:44;;;;;;;12.52;6.55;;;14.00;64.00;;;;;;5082069;27;20039;-81
2022/05/05 08:58:10;;;;;;;8.10;6.03;;;14.20;62.90;;;;;;5099196;27;20038;-79
2022/05/05 09:00:36;;;;;;;8.63;6.38;;;14.30;61.10;;;;;;5115758;27;20046;-79
2022/05/05 09:03:04;;;;;;;10.57;5.60;;;14.40;60.90;;;;;;5098861;27;20122;-78
2022/05/05 09:05:42;;;;;;;10.10;6.43;;;14.50;60.90;;;;;;5098789;27;20060;-84
2022/05/05 09:08:27;;;;;;;9.55;6.22;;;14.50;61.60;;;;;;5115787;27;20043;-78
2022/05/05 09:10:54;;;;;;;11.52;7.80;;;14.60;61.90;;;;;;5115704;27;20198;-83
2022/05/05 09:13:28;;;;;;;7.95;5.88;;;14.60;61.90;;;;;;5115625;27;20040;-79
2022/05/05 09:15:54;;;;;;;10.40;5.57;;;14.60;61.00;;;;;;5116010;27;20043;-80
2022/05/05 09:18:31;;;;;;;8.32;6.18;;;14.60;60.40;;;;;;5098867;27;20407;-80
2022/05/05 09:21:01;;;;;;;9.68;5.15;;;14.70;60.40;;;;;;5098637;28;20501;-81
2022/05/05 09:26:28;;;;;;;9.15;5.90;;;14.70;61.50;;;;;;5094742;27;20478;-80
2022/05/05 09:28:54;;;;;;;9.18;5.38;;;14.80;61.60;;;;;;5115547;28;20070;-80
2022/05/05 09:31:21;;;;;;;8.63;5.75;;;14.80;61.00;;;;;;5098631;28;20045;-81
2022/05/05 09:33:47;;;;;;;9.23;5.75;;;15.00;61.10;;;;;;5115411;28;20052;-80
2022/05/05 09:36:26;;;;;;;8.65;5.53;;;15.20;61.10;;;;;;5091656;28;20500;-82
2022/05/05 09:38:56;;;;;;;9.20;5.78;;;15.50;59.00;;;;;;5091762;28;20165;-81
2022/05/05 09:41:32;;;;;;;8.75;5.38;;;15.60;57.30;;;;;;5074716;28;20045;-80
2022/05/05 09:44:31;;;;;;;9.00;6.25;;;15.60;57.60;;;;;;5074853;28;20040;-81
2022/05/05 09:46:57;;;;;;;9.82;6.22;;;15.70;57.90;;;;;;5052587;28;20040;-79
2022/05/05 09:49:22;;;;;;;11.98;6.40;;;15.80;57.30;;;;;;5075103;28;20043;-79
2022/05/05 09:57:42;;;;;;;8.07;5.97;;;16.20;57.40;;;;;;5091524;28;20051;-81
2022/05/05 10:00:23;;;;;;;8.05;6.55;;;16.20;57.00;;;;;;5074506;28;20042;-81
2022/05/05 10:05:42;;;;;;;10.98;7.20;;;16.30;56.40;;;;;;5091409;28;20058;-78
2022/05/05 10:08:09;;;;;;;10.98;6.43;;;16.20;55.90;;;;;;5091595;28;20079;-82
2022/05/05 10:10:37;;;;;;;7.50;6.03;;;16.40;56.70;;;;;;5074484;28;20050;-81
2022/05/05 10:13:05;;;;;;;8.27;5.90;;;16.50;55.60;;;;;;5074399;28;20496;-81
2022/05/05 10:15:32;;;;;;;7.55;5.13;;;16.50;56.00;;;;;;5091378;28;20040;-81
2022/05/05 10:18:00;;;;;;;10.20;6.38;;;16.60;55.20;;;;;;5058367;28;20389;-81
2022/05/05 10:20:26;;;;;;;8.68;6.15;;;16.70;54.80;;;;;;5091474;28;20035;-80
2022/05/05 10:23:40;;;;;;;10.07;6.80;;;16.70;55.40;;;;;;5091198;28;20039;-80
2022/05/05 10:26:08;;;;;;;13.23;6.65;;;16.70;55.20;;;;;;5091311;28;20040;-79
2022/05/05 10:28:39;;;;;;;11.55;8.02;;;16.60;56.00;;;;;;5074559;28;20138;-81
2022/05/05 10:31:10;;;;;;;13.27;8.63;;;16.50;56.10;;;;;;5091316;28;20051;-82
2022/05/05 10:34:02;;;;;;;13.75;8.43;;;16.50;57.00;;;;;;5091180;28;20040;-80
2022/05/05 10:36:28;;;;;;;11.32;8.57;;;16.50;57.50;;;;;;5102788;28;20059;-80
2022/05/05 10:38:55;;;;;;;14.25;7.97;;;16.50;58.00;;;;;;5081443;28;20042;-79
2022/05/05 10:41:40;;;;;;;12.38;8.80;;;16.60;58.00;;;;;;5098670;28;20048;-79
2022/05/05 10:44:25;;;;;;;15.18;10.07;;;16.60;58.10;;;;;;5115312;28;20175;-82
2022/05/05 10:46:53;;;;;;;13.65;9.57;;;16.70;56.80;;;;;;5115249;28;20127;-78
2022/05/05 10:49:37;;;;;;;13.98;10.23;;;16.90;57.20;;;;;;5098128;28;20109;-79
2022/05/05 10:52:11;;;;;;;15.35;10.02;;;17.00;57.60;;;;;;5097917;28;20471;-81
2022/05/05 10:54:42;;;;;;;18.45;10.68;;;17.10;57.30;;;;;;5114833;28;20492;-81
2022/05/05 10:57:26;;;;;;;12.68;10.10;;;17.20;56.90;;;;;;5115108;28;20387;-78
2022/05/05 11:00:14;;;;;;;14.02;10.05;;;17.40;56.40;;;;;;5097771;28;20093;-78
2022/05/05 11:03:03;;;;;;;17.55;10.27;;;17.40;55.80;;;;;;5114866;28;20043;-80
2022/05/05 11:05:33;;;;;;;13.88;10.02;;;17.50;56.70;;;;;;5115008;28;20431;-80
2022/05/05 11:08:17;;;;;;;13.18;10.20;;;17.60;56.30;;;;;;5097819;28;20126;-80
2022/05/05 11:10:47;;;;;;;13.98;11.10;;;17.60;55.70;;;;;;5114683;28;20050;-80
2022/05/05 11:13:32;;;;;;;16.58;10.52;;;17.60;55.30;;;;;;5114440;28;20035;-80
2022/05/05 11:22:18;;;;;;;17.20;12.15;;;17.70;56.00;;;;;;5102418;28;20059;-80
2022/05/05 11:24:49;;;;;;;15.30;11.75;;;17.80;56.20;;;;;;5097386;28;20514;-79
2022/05/05 11:27:25;;;;;;;15.55;10.25;;;17.90;56.00;;;;;;5114286;28;20040;-81
2022/05/05 11:29:55;;;;;;;16.35;11.48;;;18.00;55.90;;;;;;5114411;28;20407;-81
2022/05/05 11:32:29;;;;;;;14.80;11.23;;;18.00;56.40;;;;;;5114338;28;20395;-81
2022/05/05 11:34:55;;;;;;;18.83;11.88;;;18.20;56.00;;;;;;5114381;28;20502;-82
2022/05/05 11:37:25;;;;;;;15.50;11.02;;;18.20;55.70;;;;;;5096879;28;20048;-79
2022/05/05 11:39:51;;;;;;;14.75;9.82;;;18.20;54.30;;;;;;5113996;28;20119;-79
2022/05/05 11:42:18;;;;;;;16.52;12.48;;;18.30;55.90;;;;;;5097072;28;20127;-81
2022/05/05 11:44:45;;;;;;;20.13;13.05;;;18.30;55.80;;;;;;5113999;28;20070;-80
2022/05/05 11:47:13;;;;;;;18.42;11.88;;;18.30;55.50;;;;;;5096892;28;20425;-81
2022/05/05 11:49:43;;;;;;;17.58;11.70;;;18.40;55.40;;;;;;5113757;28;20043;-83
2022/05/05 11:52:11;;;;;;;15.57;11.88;;;18.50;56.00;;;;;;5113991;28;20039;-79
2022/05/05 11:54:38;;;;;;;16.52;12.88;;;18.50;54.60;;;;;;5113776;28;20043;-78
2022/05/05 11:57:04;;;;;;;15.57;11.88;;;18.60;54.70;;;;;;5113641;28;20122;-81
2022/05/05 12:02:23;;;;;;;17.65;13.38;;;18.60;55.40;;;;;;5113840;28;20396;-79
2022/05/05 12:04:52;;;;;;;21.05;13.57;;;18.70;55.00;;;;;;5080220;28;20075;-83
2022/05/05 12:07:21;;;;;;;17.30;11.93;;;18.80;55.30;;;;;;5113465;28;20160;-80
2022/05/05 12:09:51;;;;;;;19.10;13.57;;;18.80;55.10;;;;;;5113386;28;20043;-81
2022/05/05 12:12:22;;;;;;;18.48;13.48;;;18.90;54.90;;;;;;5096355;28;20510;-78
2022/05/05 12:14:53;;;;;;;23.85;16.55;;;19.00;54.10;;;;;;5096394;28;20039;-80
2022/05/05 12:17:21;;;;;;;18.95;14.50;;;19.00;54.30;;;;;;5113589;28;20078;-80
2022/05/05 12:19:53;;;;;;;22.70;13.90;;;19.10;54.70;;;;;;5096253;28;20043;-80
2022/05/05 12:22:21;;;;;;;21.60;15.50;;;19.30;53.50;;;;;;5079356;28;20075;-81
2022/05/05 12:24:47;;;;;;;22.02;15.70;;;19.30;52.90;;;;;;5113240;28;20043;-79
2022/05/05 12:27:13;;;;;;;19.08;14.02;;;19.20;53.30;;;;;;5113101;28;20088;-80
2022/05/05 12:29:44;;;;;;;20.27;15.23;;;19.30;53.10;;;;;;5113024;28;20043;-81
2022/05/05 12:32:16;;;;;;;21.58;15.38;;;19.40;53.80;;;;;;5096047;28;20036;-79
2022/05/05 12:34:42;;;;;;;23.58;15.73;;;19.50;53.70;;;;;;5113057;28;20035;-78
2022/05/05 12:37:18;;;;;;;19.35;14.57;;;19.70;53.00;;;;;;5095942;28;20052;-79
2022/05/05 12:39:51;;;;;;;19.73;14.10;;;19.60;52.20;;;;;;5113087;28;20048;-80
2022/05/05 12:42:16;;;;;;;18.95;13.85;;;19.40;51.90;;;;;;5113085;28;20040;-81
2022/05/05 12:44:49;;;;;;;18.98;13.50;;;19.40;52.70;;;;;;5112808;28;20534;-78
2022/05/05 12:47:20;;;;;;;19.48;14.05;;;19.40;52.50;;;;;;5112970;28;20400;-81
2022/05/05 12:49:46;;;;;;;17.42;13.70;;;19.30;52.70;;;;;;5095744;28;20043;-79
2022/05/05 13:00:25;;;;;;;16.27;12.68;;;19.90;50.80;;;;;;5097756;28;20096;-81
2022/05/05 13:02:50;;;;;;;16.35;12.02;;;19.90;51.10;;;;;;5095414;28;20491;-79
2022/05/05 13:05:18;;;;;;;16.85;12.70;;;19.90;51.30;;;;;;5095575;28;20075;-79
2022/05/05 13:07:43;;;;;;;15.30;12.75;;;20.10;51.60;;;;;;5095566;28;20077;-78
2022/05/05 13:10:09;;;;;;;17.10;12.60;;;20.20;50.70;;;;;;5078557;28;20039;-81
2022/05/05 13:12:35;;;;;;;17.17;12.38;;;20.30;50.60;;;;;;5095657;28;20453;-79
2022/05/05 13:15:01;;;;;;;14.30;12.10;;;20.00;50.80;;;;;;5078811;28;20035;-79
2022/05/05 13:17:26;;;;;;;14.93;12.27;;;20.10;51.00;;;;;;5062117;28;20039;-79
2022/05/05 13:19:52;;;;;;;16.05;12.88;;;20.30;50.80;;;;;;5112186;28;20039;-82
2022/05/05 13:22:18;;;;;;;14.20;11.30;;;20.30;49.80;;;;;;5078389;28;20039;-78
2022/05/05 13:24:43;;;;;;;17.63;13.65;;;20.40;50.30;;;;;;5112194;28;20047;-81
2022/05/05 13:27:09;;;;;;;15.95;12.13;;;20.40;49.70;;;;;;5112457;28;20051;-79
2022/05/05 13:29:35;;;;;;;17.90;11.65;;;20.50;49.40;;;;;;5095351;28;20532;-79
2022/05/05 13:32:01;;;;;;;15.85;11.85;;;20.60;48.70;;;;;;5095132;28;20523;-80
2022/05/05 13:34:26;;;;;;;15.75;12.57;;;20.60;49.00;;;;;;5095427;28;20126;-80
2022/05/05 13:36:52;;;;;;;15.10;11.88;;;20.50;49.20;;;;;;5095154;28;20550;-82